createdAt,value
2022-08-24T00:01:59.110Z,1.67
2022-08-24T00:04:25.769Z,1.30
2022-08-24T00:06:52.457Z,1.30
2022-08-24T00:09:18.892Z,1.20
2022-08-24T00:11:45.285Z,1.27
2022-08-24T00:14:12.144Z,1.70
2022-08-24T00:16:38.671Z,1.30
2022-08-24T00:19:05.182Z,1.43
2022-08-24T00:21:31.568Z,1.27
2022-08-24T00:23:57.961Z,1.60
2022-08-24T00:26:28.848Z,1.40
2022-08-24T00:28:55.903Z,1.30
2022-08-24T00:31:22.445Z,1.40
2022-08-24T00:33:49.028Z,1.37
2022-08-24T00:36:15.405Z,1.83
2022-08-24T00:38:42.441Z,1.47
2022-08-24T00:41:08.893Z,1.37
2022-08-24T00:43:35.338Z,1.47
2022-08-24T00:46:14.434Z,1.73
2022-08-24T00:48:45.540Z,1.37
2022-08-24T00:51:16.607Z,1.43
2022-08-24T00:53:45.837Z,1.30
2022-08-24T00:56:16.097Z,1.40
2022-08-24T00:58:45.743Z,1.17
2022-08-24T01:01:14.188Z,1.57
2022-08-24T01:03:42.451Z,1.60
2022-08-24T01:06:09.490Z,1.57
2022-08-24T01:08:35.874Z,1.50
2022-08-24T01:11:06.367Z,1.53
2022-08-24T01:13:34.055Z,1.40
2022-08-24T01:16:04.316Z,1.80
2022-08-24T01:18:49.218Z,1.97
2022-08-24T01:21:29.996Z,1.30
2022-08-24T01:23:58.121Z,1.60
2022-08-24T01:26:45.388Z,1.80
2022-08-24T01:29:15.458Z,1.70
2022-08-24T01:31:42.645Z,1.60
2022-08-24T01:34:09.168Z,1.60
2022-08-24T01:36:40.467Z,1.70
2022-08-24T01:39:18.796Z,1.70
2022-08-24T01:41:45.146Z,1.70
2022-08-24T01:44:11.577Z,1.87
2022-08-24T01:46:38.079Z,1.60
2022-08-24T01:49:05.447Z,1.63
2022-08-24T01:51:32.590Z,1.27
2022-08-24T01:54:00.826Z,1.70
2022-08-24T01:56:27.219Z,1.53
2022-08-24T01:58:57.202Z,1.97
2022-08-24T02:01:24.134Z,1.80
2022-08-24T02:03:51.792Z,1.50
2022-08-24T02:06:19.731Z,1.70
2022-08-24T02:08:46.166Z,1.40
2022-08-24T02:11:12.631Z,1.83
2022-08-24T02:13:40.150Z,1.73
2022-08-24T02:16:07.130Z,1.40
2022-08-24T02:18:34.559Z,1.50
2022-08-24T02:21:01.268Z,1.70
2022-08-24T02:23:28.844Z,1.90
2022-08-24T02:25:56.195Z,1.57
2022-08-24T02:28:22.743Z,1.70
2022-08-24T02:30:49.484Z,1.63
2022-08-24T02:33:16.038Z,1.93
2022-08-24T02:35:42.575Z,1.97
2022-08-24T02:38:10.111Z,2.07
2022-08-24T02:40:36.557Z,1.70
2022-08-24T02:43:03.200Z,1.80
2022-08-24T02:45:29.739Z,1.83
2022-08-24T02:47:56.351Z,1.60
2022-08-24T02:50:22.860Z,2.00
2022-08-24T02:52:49.246Z,1.73
2022-08-24T02:55:20.330Z,1.70
2022-08-24T02:57:47.914Z,1.80
2022-08-24T03:00:15.919Z,1.87
2022-08-24T03:02:42.399Z,2.37
2022-08-24T03:05:10.240Z,2.10
2022-08-24T03:07:37.027Z,1.93
2022-08-24T03:10:04.774Z,1.73
2022-08-24T03:12:31.705Z,2.20
2022-08-24T03:14:58.083Z,1.90
2022-08-24T03:17:24.511Z,1.97
2022-08-24T03:19:50.924Z,2.33
2022-08-24T03:22:17.338Z,1.80
2022-08-24T03:24:45.078Z,2.23
2022-08-24T03:27:14.129Z,1.87
2022-08-24T03:29:40.872Z,1.80
2022-08-24T03:32:08.223Z,2.20
2022-08-24T03:34:34.926Z,1.80
2022-08-24T03:37:01.626Z,2.00
2022-08-24T03:39:28.125Z,2.43
2022-08-24T03:41:54.561Z,2.63
2022-08-24T03:44:23.192Z,2.17
2022-08-24T03:46:49.829Z,1.80
2022-08-24T03:49:16.321Z,2.03
2022-08-24T03:51:43.039Z,2.17
2022-08-24T03:54:09.958Z,2.50
2022-08-24T03:56:36.514Z,2.00
2022-08-24T03:59:03.119Z,1.87
2022-08-24T04:01:29.625Z,2.10
2022-08-24T04:03:56.064Z,2.10
2022-08-24T04:06:23.038Z,2.20
2022-08-24T04:08:49.981Z,2.40
2022-08-24T04:11:20.907Z,2.10
2022-08-24T04:13:48.178Z,2.30
2022-08-24T04:16:16.069Z,2.63
2022-08-24T04:18:42.962Z,2.70
2022-08-24T04:21:22.595Z,2.40
2022-08-24T04:23:49.442Z,2.00
2022-08-24T04:26:16.750Z,2.60
2022-08-24T04:29:03.478Z,2.40
2022-08-24T04:31:35.606Z,2.60
2022-08-24T04:34:02.053Z,2.43
2022-08-24T04:36:28.495Z,2.70
2022-08-24T04:38:54.929Z,2.57
2022-08-24T04:41:25.272Z,2.27
2022-08-24T04:43:57.605Z,2.23
2022-08-24T04:46:24.084Z,2.37
2022-08-24T04:48:50.511Z,2.57
2022-08-24T04:51:18.099Z,2.30
2022-08-24T04:53:45.351Z,2.50
2022-08-24T04:56:13.702Z,2.70
2022-08-24T04:58:40.072Z,2.63
2022-08-24T05:01:20.047Z,2.60
2022-08-24T05:03:48.779Z,2.30
2022-08-24T05:06:15.540Z,2.37
2022-08-24T05:08:42.571Z,2.57
2022-08-24T05:11:09.021Z,2.97
2022-08-24T05:13:35.978Z,2.70
2022-08-24T05:16:05.744Z,2.50
2022-08-24T05:18:33.665Z,3.10
2022-08-24T05:21:00.268Z,2.90
2022-08-24T05:23:27.043Z,2.60
2022-08-24T05:25:53.584Z,3.00
2022-08-24T05:28:20.378Z,2.57
2022-08-24T05:30:46.766Z,2.90
2022-08-24T05:33:17.507Z,2.70
2022-08-24T05:35:44.647Z,6.20
2022-08-24T05:38:11.173Z,3.03
2022-08-24T05:40:37.645Z,2.67
2022-08-24T05:43:04.169Z,3.07
2022-08-24T05:45:31.589Z,3.17
2022-08-24T05:47:57.959Z,2.53
2022-08-24T05:50:24.379Z,2.97
2022-08-24T05:52:50.753Z,3.20
2022-08-24T05:55:17.158Z,3.77
2022-08-24T05:57:45.504Z,2.60
2022-08-24T06:00:12.714Z,2.87
2022-08-24T06:02:39.310Z,3.30
2022-08-24T06:05:05.834Z,2.90
2022-08-24T06:07:32.235Z,2.47
2022-08-24T06:10:14.598Z,2.80
2022-08-24T06:12:46.420Z,3.00
2022-08-24T06:15:13.414Z,2.73
2022-08-24T06:17:40.117Z,3.23
2022-08-24T06:20:07.433Z,2.97
2022-08-24T06:22:34.119Z,3.10
2022-08-24T06:25:18.871Z,3.10
2022-08-24T06:27:45.307Z,3.10
2022-08-24T06:30:12.033Z,3.03
2022-08-24T06:32:39.401Z,2.50
2022-08-24T06:35:06.075Z,2.97
2022-08-24T06:37:37.590Z,2.53
2022-08-24T06:40:04.629Z,2.77
2022-08-24T06:42:31.751Z,2.50
2022-08-24T06:44:58.145Z,2.87
2022-08-24T06:47:24.570Z,2.70
2022-08-24T06:49:51.033Z,2.63
2022-08-24T06:52:17.672Z,3.10
2022-08-24T06:54:44.142Z,2.73
2022-08-24T06:57:10.576Z,2.53
2022-08-24T06:59:36.994Z,2.50
2022-08-24T07:02:03.654Z,2.77
2022-08-24T07:04:30.154Z,3.10
2022-08-24T07:06:56.600Z,3.23
2022-08-24T07:09:25.035Z,2.67
2022-08-24T07:11:52.091Z,3.20
2022-08-24T07:14:19.703Z,3.03
2022-08-24T07:16:46.150Z,2.43
2022-08-24T07:19:12.568Z,2.60
2022-08-24T07:21:38.989Z,4.77
2022-08-24T07:24:07.176Z,2.43
2022-08-24T07:26:33.749Z,2.53
2022-08-24T07:29:05.429Z,2.43
2022-08-24T07:31:42.025Z,3.00
2022-08-24T07:34:09.516Z,3.20
2022-08-24T07:36:38.085Z,2.67
2022-08-24T07:39:09.202Z,2.40
2022-08-24T07:42:02.555Z,2.60
2022-08-24T07:44:31.092Z,3.07
2022-08-24T07:46:57.813Z,3.67
2022-08-24T07:49:37.302Z,2.50
2022-08-24T07:52:06.079Z,2.60
2022-08-24T07:54:32.595Z,2.77
2022-08-24T07:56:59.667Z,3.40
2022-08-24T07:59:26.068Z,3.00
2022-08-24T08:01:53.022Z,2.50
2022-08-24T08:04:22.102Z,3.10
2022-08-24T08:06:48.605Z,2.40
2022-08-24T08:09:15.000Z,2.10
2022-08-24T08:11:41.429Z,2.13
2022-08-24T08:14:08.027Z,2.37
2022-08-24T08:16:34.487Z,2.27
2022-08-24T08:19:09.950Z,2.40
2022-08-24T08:22:02.763Z,2.60
2022-08-24T08:24:29.226Z,2.50
2022-08-24T08:26:56.077Z,2.40
2022-08-24T08:29:24.862Z,2.83
2022-08-24T08:31:52.392Z,2.53
2022-08-24T08:34:19.019Z,4.07
2022-08-24T08:36:45.655Z,2.55
2022-08-24T08:39:13.337Z,2.60
2022-08-24T08:41:58.286Z,2.60
2022-08-24T08:44:30.702Z,2.55
2022-08-24T08:47:15.774Z,2.67
2022-08-24T08:49:48.257Z,2.65
2022-08-24T08:52:39.627Z,2.83
2022-08-24T08:55:11.783Z,2.70
2022-08-24T08:57:44.257Z,2.67
2022-08-24T09:00:15.760Z,2.15
2022-08-24T09:03:05.093Z,2.38
2022-08-24T09:05:34.629Z,2.58
2022-08-24T09:08:01.044Z,2.20
2022-08-24T09:10:33.817Z,2.40
2022-08-24T09:13:19.027Z,2.47
2022-08-24T09:15:48.645Z,2.20
2022-08-24T09:18:33.853Z,2.25
2022-08-24T09:21:03.322Z,2.58
2022-08-24T09:23:29.707Z,1.98
2022-08-24T09:26:04.283Z,2.17
2022-08-24T09:28:56.926Z,2.30
2022-08-24T09:31:44.523Z,1.95
2022-08-24T09:34:18.591Z,1.92
2022-08-24T09:37:05.234Z,2.17
2022-08-24T09:39:50.429Z,2.03
2022-08-24T09:42:19.699Z,2.28
2022-08-24T09:44:55.298Z,2.08
2022-08-24T09:47:27.543Z,2.38
2022-08-24T09:50:12.894Z,2.05
2022-08-24T09:52:50.423Z,1.80
2022-08-24T09:55:27.602Z,2.50
2022-08-24T09:58:12.579Z,2.80
2022-08-24T10:00:45.094Z,3.30
2022-08-24T10:03:27.407Z,1.85
2022-08-24T10:06:07.179Z,2.00
2022-08-24T10:08:39.593Z,2.00
2022-08-24T10:11:06.005Z,1.98
2022-08-24T10:13:51.887Z,2.20
2022-08-24T10:16:27.801Z,1.90
2022-08-24T10:19:11.895Z,2.05
2022-08-24T10:21:38.390Z,2.65
2022-08-24T10:24:26.616Z,2.00
2022-08-24T10:27:20.696Z,2.35
2022-08-24T10:29:53.009Z,1.90
2022-08-24T10:32:34.810Z,2.15
2022-08-24T10:35:13.757Z,2.22
2022-08-24T10:38:19.185Z,1.98
2022-08-24T10:41:05.718Z,1.90
2022-08-24T10:43:48.551Z,1.98
2022-08-24T10:46:33.249Z,2.00
2022-08-24T10:49:18.260Z,1.67
2022-08-24T10:52:06.558Z,3.97
2022-08-24T10:54:33.951Z,1.70
2022-08-24T10:57:09.217Z,1.98
2022-08-24T10:59:49.505Z,1.75
2022-08-24T11:02:33.164Z,1.77
2022-08-24T11:05:01.170Z,2.00
2022-08-24T11:07:28.001Z,1.90
2022-08-24T11:09:56.925Z,1.88
2022-08-24T11:12:26.436Z,1.80
2022-08-24T11:14:54.128Z,1.80
2022-08-24T11:17:21.969Z,1.73
2022-08-24T11:19:49.146Z,1.65
2022-08-24T11:22:27.661Z,1.70
2022-08-24T11:24:55.958Z,1.77
2022-08-24T11:27:29.150Z,1.90
2022-08-24T11:29:57.564Z,1.70
2022-08-24T11:32:28.835Z,1.88
2022-08-24T11:34:58.555Z,1.40
2022-08-24T11:37:34.830Z,1.50
2022-08-24T11:40:02.401Z,2.08
2022-08-24T11:42:41.228Z,1.70
2022-08-24T11:45:15.086Z,2.05
2022-08-24T11:47:59.960Z,1.90
2022-08-24T11:50:36.106Z,1.75
2022-08-24T11:53:12.345Z,1.98
2022-08-24T11:56:00.356Z,1.73
2022-08-24T11:58:40.526Z,1.67
2022-08-24T12:01:12.382Z,1.38
2022-08-24T12:03:52.583Z,1.67
2022-08-24T12:06:27.649Z,1.67
2022-08-24T12:09:06.197Z,1.60
2022-08-24T12:11:48.218Z,1.85
2022-08-24T12:14:27.139Z,1.58
2022-08-24T12:16:54.059Z,1.45
2022-08-24T12:19:44.310Z,1.73
2022-08-24T12:22:12.520Z,1.40
2022-08-24T12:24:41.846Z,1.73
2022-08-24T12:27:14.428Z,2.03
2022-08-24T12:29:40.775Z,1.90
2022-08-24T12:32:12.182Z,1.65
2022-08-24T12:35:04.671Z,1.60
2022-08-24T12:37:36.467Z,1.55
2022-08-24T12:40:02.953Z,2.03
2022-08-24T12:42:34.154Z,1.88
2022-08-24T12:45:05.296Z,1.63
2022-08-24T12:47:52.086Z,1.58
2022-08-24T12:50:25.073Z,1.70
2022-08-24T12:52:51.820Z,1.83
2022-08-24T12:55:19.231Z,1.63
2022-08-24T12:57:57.526Z,1.77
2022-08-24T13:00:31.925Z,1.60
2022-08-24T13:03:03.067Z,1.50
2022-08-24T13:05:46.726Z,1.40
2022-08-24T13:08:15.643Z,1.85
2022-08-24T13:10:44.962Z,1.67
2022-08-24T13:13:14.112Z,1.65
2022-08-24T13:15:57.170Z,1.50
2022-08-24T13:18:27.500Z,1.30
2022-08-24T13:20:55.567Z,1.20
2022-08-24T13:23:23.429Z,1.33
2022-08-24T13:25:55.876Z,1.17
2022-08-24T13:28:22.492Z,1.30
2022-08-24T13:31:04.333Z,1.50
2022-08-24T13:33:51.749Z,1.10
2022-08-24T13:36:36.899Z,1.13
2022-08-24T13:39:23.318Z,2.58
2022-08-24T13:42:02.471Z,1.60
2022-08-24T13:44:32.947Z,2.22
2022-08-24T13:47:08.119Z,1.45
2022-08-24T13:49:37.246Z,1.40
2022-08-24T13:52:18.935Z,1.30
2022-08-24T13:54:57.571Z,1.35
2022-08-24T13:57:23.966Z,1.58
2022-08-24T13:59:59.770Z,2.63
2022-08-24T14:02:27.673Z,1.52
2022-08-24T14:04:54.052Z,1.40
2022-08-24T14:07:22.519Z,1.52
2022-08-24T14:10:02.466Z,1.60
2022-08-24T14:12:34.835Z,1.38
2022-08-24T14:15:16.770Z,1.40
2022-08-24T14:17:55.018Z,1.48
2022-08-24T14:20:31.313Z,1.80
2022-08-24T14:23:06.955Z,1.70
2022-08-24T14:25:34.946Z,1.60
2022-08-24T14:28:01.372Z,5.13
2022-08-24T14:30:28.124Z,3.30
2022-08-24T14:32:57.621Z,1.40
2022-08-24T14:35:36.436Z,1.73
2022-08-24T14:38:24.224Z,1.60
2022-08-24T14:41:09.545Z,1.50
2022-08-24T14:43:38.793Z,1.77
2022-08-24T14:46:24.257Z,1.33
2022-08-24T14:49:08.256Z,1.52
2022-08-24T14:51:54.587Z,1.40
2022-08-24T14:54:41.416Z,1.90
2022-08-24T14:57:28.084Z,1.50
2022-08-24T15:00:02.482Z,1.42
2022-08-24T15:02:52.137Z,1.48
2022-08-24T15:05:25.487Z,1.50
2022-08-24T15:07:53.970Z,1.33
2022-08-24T15:10:24.807Z,1.13
2022-08-24T15:12:54.175Z,1.52
2022-08-24T15:15:42.854Z,1.40
2022-08-24T15:18:13.420Z,1.42
2022-08-24T15:20:39.782Z,1.23
2022-08-24T15:23:24.903Z,1.25
2022-08-24T15:26:02.629Z,1.40
2022-08-24T15:28:32.498Z,1.55
2022-08-24T15:31:01.695Z,1.30
2022-08-24T15:33:30.096Z,1.20
2022-08-24T15:36:08.115Z,1.20
2022-08-24T15:38:35.459Z,1.55
2022-08-24T15:41:06.933Z,1.27
2022-08-24T15:43:38.487Z,1.08
2022-08-24T15:46:05.073Z,1.20
2022-08-24T15:48:32.055Z,1.13
2022-08-24T15:50:59.469Z,1.17
2022-08-24T15:53:33.202Z,2.72
2022-08-24T15:56:12.935Z,1.58
2022-08-24T15:58:39.379Z,1.20
2022-08-24T16:01:30.569Z,1.27
2022-08-24T16:04:17.269Z,1.42
2022-08-24T16:06:45.807Z,1.30
2022-08-24T16:09:14.047Z,1.20
2022-08-24T16:11:42.373Z,1.65
2022-08-24T16:14:25.098Z,1.45
2022-08-24T16:16:53.562Z,1.30
2022-08-24T16:19:26.883Z,1.48
2022-08-24T16:21:56.381Z,1.90
2022-08-24T16:24:25.654Z,1.20
2022-08-24T16:26:54.417Z,1.52
2022-08-24T16:29:36.918Z,1.70
2022-08-24T16:32:06.425Z,1.75
2022-08-24T16:34:33.075Z,1.75
2022-08-24T16:36:59.922Z,1.48
2022-08-24T16:39:26.705Z,1.50
2022-08-24T16:41:55.342Z,1.70
2022-08-24T16:44:26.128Z,1.83
2022-08-24T16:46:52.933Z,1.73
2022-08-24T16:49:19.342Z,1.45
2022-08-24T16:51:45.882Z,1.70
2022-08-24T16:54:12.468Z,2.28
2022-08-24T16:56:39.029Z,2.28
2022-08-24T16:59:06.931Z,1.92
2022-08-24T17:01:33.421Z,1.70
2022-08-24T17:03:59.889Z,1.45
2022-08-24T17:06:26.282Z,2.20
2022-08-24T17:08:53.686Z,1.90
2022-08-24T17:11:20.075Z,1.80
2022-08-24T17:13:50.174Z,2.33
2022-08-24T17:16:18.088Z,1.77
2022-08-24T17:18:44.598Z,1.83
2022-08-24T17:21:11.067Z,1.90
2022-08-24T17:23:38.148Z,1.98
2022-08-24T17:26:06.985Z,1.90
2022-08-24T17:28:38.661Z,2.15
2022-08-24T17:31:06.371Z,2.05
2022-08-24T17:33:32.773Z,1.65
2022-08-24T17:35:59.304Z,2.17
2022-08-24T17:38:25.683Z,4.05
2022-08-24T17:40:52.380Z,2.20
2022-08-24T17:43:18.817Z,1.98
2022-08-24T17:45:45.266Z,1.90
2022-08-24T17:48:17.114Z,2.28
2022-08-24T17:50:43.817Z,2.35
2022-08-24T17:53:10.455Z,2.67
2022-08-24T17:55:37.086Z,2.60
2022-08-24T17:58:03.530Z,2.10
2022-08-24T18:00:29.988Z,2.17
2022-08-24T18:02:56.448Z,2.45
2022-08-24T18:05:22.906Z,2.30
2022-08-24T18:07:54.658Z,2.28
2022-08-24T18:10:23.789Z,2.47
2022-08-24T18:12:50.712Z,2.22
2022-08-24T18:15:17.164Z,2.10
2022-08-24T18:17:44.357Z,2.70
2022-08-24T18:20:11.708Z,2.58
2022-08-24T18:22:44.983Z,2.20
2022-08-24T18:25:12.870Z,2.63
2022-08-24T18:27:40.088Z,2.35
2022-08-24T18:30:07.652Z,2.33
2022-08-24T18:32:39.566Z,2.33
2022-08-24T18:35:06.610Z,2.53
2022-08-24T18:37:33.058Z,2.60
2022-08-24T18:39:59.538Z,2.47
2022-08-24T18:42:26.975Z,4.90
2022-08-24T18:44:54.358Z,2.75
2022-08-24T18:47:20.769Z,2.42
2022-08-24T18:49:47.191Z,2.40
2022-08-24T18:52:14.569Z,2.72
2022-08-24T18:54:41.957Z,2.25
2022-08-24T18:57:08.776Z,2.38
2022-08-24T18:59:35.930Z,2.58
2022-08-24T19:02:33.183Z,2.53
2022-08-24T19:05:25.946Z,2.53
2022-08-24T19:07:53.315Z,2.50
2022-08-24T19:10:21.537Z,2.30
2022-08-24T19:12:50.149Z,2.58
2022-08-24T19:15:32.211Z,2.42
2022-08-24T19:18:03.974Z,2.78
2022-08-24T19:20:32.091Z,2.50
2022-08-24T19:23:05.088Z,2.05
2022-08-24T19:25:31.947Z,2.35
2022-08-24T19:27:58.680Z,2.60
2022-08-24T19:30:27.944Z,2.40
2022-08-24T19:32:56.091Z,2.47
2022-08-24T19:35:22.798Z,2.20
2022-08-24T19:37:49.789Z,2.35
2022-08-24T19:40:17.297Z,2.40
2022-08-24T19:42:44.175Z,5.45
2022-08-24T19:45:31.074Z,5.82
2022-08-24T19:47:57.508Z,2.65
2022-08-24T19:50:28.221Z,2.30
2022-08-24T19:52:57.571Z,2.88
2022-08-24T19:55:23.950Z,2.30
2022-08-24T19:57:53.719Z,2.55
2022-08-24T20:00:48.233Z,2.30
2022-08-24T20:03:17.030Z,2.20
2022-08-24T20:05:43.498Z,2.50
2022-08-24T20:08:10.981Z,2.38
2022-08-24T20:10:38.186Z,2.30
2022-08-24T20:13:04.648Z,2.47
2022-08-24T20:15:32.049Z,2.28
2022-08-24T20:17:59.086Z,2.40
2022-08-24T20:20:26.317Z,2.60
2022-08-24T20:22:53.108Z,2.13
2022-08-24T20:25:20.435Z,2.40
2022-08-24T20:27:47.454Z,2.50
2022-08-24T20:30:14.680Z,2.70
2022-08-24T20:32:41.179Z,2.60
2022-08-24T20:35:08.312Z,2.67
2022-08-24T20:37:34.862Z,2.50
2022-08-24T20:40:01.638Z,2.20
2022-08-24T20:42:29.443Z,2.93
2022-08-24T20:44:55.874Z,2.30
2022-08-24T20:47:22.790Z,2.03
2022-08-24T20:49:49.490Z,2.20
2022-08-24T20:52:15.877Z,2.27
2022-08-24T20:54:42.252Z,2.53
2022-08-24T20:57:10.351Z,2.40
2022-08-24T20:59:36.952Z,2.40
2022-08-24T21:02:03.662Z,2.30
2022-08-24T21:04:30.169Z,2.33
2022-08-24T21:06:57.045Z,6.07
2022-08-24T21:09:23.652Z,3.83
2022-08-24T21:11:50.226Z,2.50
2022-08-24T21:14:16.672Z,2.30
2022-08-24T21:16:43.459Z,2.83
2022-08-24T21:19:11.151Z,2.63
2022-08-24T21:21:41.696Z,2.53
2022-08-24T21:24:09.669Z,2.47
2022-08-24T21:26:36.201Z,2.70
2022-08-24T21:29:04.070Z,2.23
2022-08-24T21:31:30.523Z,2.43
2022-08-24T21:34:15.430Z,2.33
2022-08-24T21:36:42.277Z,2.30
2022-08-24T21:39:10.988Z,2.33
2022-08-24T21:41:37.730Z,2.40
2022-08-24T21:44:04.204Z,2.57
2022-08-24T21:46:31.516Z,2.37
2022-08-24T21:48:58.083Z,2.40
2022-08-24T21:51:24.481Z,2.60
2022-08-24T21:53:51.081Z,2.37
2022-08-24T21:56:28.863Z,2.50
2022-08-24T21:58:55.286Z,2.57
2022-08-24T22:01:21.720Z,2.50
2022-08-24T22:03:48.227Z,2.40
2022-08-24T22:06:14.729Z,2.63
2022-08-24T22:08:42.620Z,2.73
2022-08-24T22:11:10.202Z,2.60
2022-08-24T22:13:36.986Z,2.57
2022-08-24T22:16:03.471Z,2.50
2022-08-24T22:18:30.614Z,2.83
2022-08-24T22:20:57.063Z,2.67
2022-08-24T22:23:24.240Z,2.83
2022-08-24T22:25:51.306Z,2.73
2022-08-24T22:28:17.705Z,3.00
2022-08-24T22:30:48.000Z,2.97
2022-08-24T22:33:15.922Z,2.87
2022-08-24T22:35:45.167Z,2.93
2022-08-24T22:38:12.446Z,2.27
2022-08-24T22:40:38.907Z,2.50
2022-08-24T22:43:05.565Z,2.77
2022-08-24T22:45:32.201Z,3.30
2022-08-24T22:47:58.614Z,2.80
2022-08-24T22:50:25.067Z,2.57
2022-08-24T22:52:52.513Z,2.80
2022-08-24T22:55:18.963Z,2.73
2022-08-24T22:57:47.730Z,2.90
2022-08-24T23:00:17.842Z,3.10
2022-08-24T23:02:44.217Z,2.97
2022-08-24T23:05:10.600Z,3.00
2022-08-24T23:07:36.988Z,3.13
2022-08-24T23:10:06.861Z,2.83
2022-08-24T23:12:33.343Z,2.60
2022-08-24T23:14:59.927Z,2.83
2022-08-24T23:17:26.314Z,3.03
2022-08-24T23:20:01.935Z,2.90
2022-08-24T23:22:31.482Z,3.20
2022-08-24T23:24:59.097Z,3.40
2022-08-24T23:27:26.939Z,3.03
2022-08-24T23:30:02.979Z,3.13
2022-08-24T23:32:29.395Z,3.63
2022-08-24T23:34:57.217Z,3.33
2022-08-24T23:37:23.966Z,3.13
2022-08-24T23:39:50.405Z,3.60
2022-08-24T23:42:16.860Z,2.67
2022-08-24T23:44:43.316Z,3.27
2022-08-24T23:47:09.768Z,3.00
2022-08-24T23:49:36.186Z,2.93
2022-08-24T23:52:03.355Z,3.37
2022-08-24T23:54:29.874Z,3.37
2022-08-24T23:56:56.770Z,3.20
2022-08-24T23:59:24.927Z,3.50
